Time;durP1;ratioP1;P1;durP2;ratioP2;P2;SDS_P1;SDS_P2;PMS_P1;PMS_P2;Temp;Humidity;BMP_temperature;BMP_pressure;BME280_temperature;BME280_humidity;BME280_pressure;Samples;Min_cycle;Max_cycle;Signal;HPM_P1;HPM_P2
2022/01/16 00:04:44;;;;;;;105.95;40.95;;;;;;;2.89;100.00;102419.66;5014762;28;20092;-72
2022/01/16 00:07:09;;;;;;;105.32;39.90;;;;;;;2.89;100.00;102404.06;5020978;28;20021;-72
2022/01/16 00:09:35;;;;;;;111.78;40.90;;;;;;;2.93;100.00;102407.75;5017273;28;20033;-72
2022/01/16 00:12:04;;;;;;;105.10;39.85;;;;;;;2.92;100.00;102409.47;5024442;28;20038;-72
2022/01/16 00:14:31;;;;;;;104.30;39.85;;;;;;;2.92;100.00;102413.78;5025834;28;20378;-72
2022/01/16 00:16:57;;;;;;;113.57;39.60;;;;;;;2.94;100.00;102415.66;5019055;28;20030;-72
2022/01/16 00:19:23;;;;;;;113.22;41.45;;;;;;;2.97;100.00;102410.72;5024025;28;20026;-72
2022/01/16 00:21:48;;;;;;;128.80;42.95;;;;;;;3.00;100.00;102404.84;5026791;28;20448;-72
2022/01/16 00:24:13;;;;;;;127.88;44.38;;;;;;;3.02;100.00;102401.53;5029260;28;20025;-72
2022/01/16 00:26:40;;;;;;;132.75;45.15;;;;;;;3.07;100.00;102400.97;5019293;28;20022;-72
2022/01/16 00:29:07;;;;;;;145.05;44.63;;;;;;;3.09;100.00;102392.47;5023040;28;20032;-72
2022/01/16 00:31:37;;;;;;;148.00;46.42;;;;;;;3.09;100.00;102394.19;5023812;28;20029;-72
2022/01/16 00:34:04;;;;;;;144.32;45.53;;;;;;;3.16;100.00;102401.63;5024513;28;20037;-73
2022/01/16 00:36:30;;;;;;;134.82;45.63;;;;;;;3.13;100.00;102401.41;5024145;28;20387;-72
2022/01/16 00:38:57;;;;;;;127.93;45.05;;;;;;;3.13;100.00;102396.19;5022053;28;20049;-72
2022/01/16 00:41:22;;;;;;;145.88;47.47;;;;;;;3.13;100.00;102401.41;5026107;28;20489;-72
2022/01/16 00:43:49;;;;;;;145.07;47.40;;;;;;;3.11;100.00;102403.91;5022642;28;20040;-73
2022/01/16 00:46:14;;;;;;;138.55;44.45;;;;;;;3.12;100.00;102410.91;5017266;28;20025;-72
2022/01/16 00:48:40;;;;;;;152.18;48.03;;;;;;;3.12;100.00;102410.91;5024010;28;20022;-73
2022/01/16 00:51:07;;;;;;;162.70;48.55;;;;;;;3.13;100.00;102417.91;5014137;28;20079;-71
2022/01/16 00:53:32;;;;;;;143.43;47.55;;;;;;;3.14;100.00;102403.22;5021267;28;20108;-72
2022/01/16 00:55:58;;;;;;;160.57;48.17;;;;;;;3.15;100.00;102373.81;5014853;28;20117;-72
2022/01/16 00:58:23;;;;;;;160.18;45.25;;;;;;;3.14;100.00;102398.91;5029327;28;20034;-72
2022/01/16 01:00:48;;;;;;;157.55;47.83;;;;;;;3.18;100.00;102381.84;5021043;28;20041;-72
2022/01/16 01:03:16;;;;;;;167.52;49.42;;;;;;;3.19;100.00;102349.84;5025656;28;20032;-72
2022/01/16 01:05:41;;;;;;;178.07;49.40;;;;;;;3.18;100.00;102348.03;5024177;28;20072;-72
2022/01/16 01:08:07;;;;;;;157.32;48.85;;;;;;;3.22;100.00;102352.66;5031511;28;20057;-71
2022/01/16 01:10:36;;;;;;;167.02;49.35;;;;;;;3.24;100.00;102363.16;5028570;28;20026;-71
2022/01/16 01:13:12;;;;;;;189.02;50.92;;;;;;;3.24;100.00;102361.44;5013020;28;20021;-71
2022/01/16 01:15:46;;;;;;;186.52;49.58;;;;;;;3.27;100.00;102389.38;5013909;28;20124;-72
2022/01/16 01:18:12;;;;;;;199.40;50.67;;;;;;;3.32;100.00;102382.81;5027471;28;20064;-71
2022/01/16 01:20:41;;;;;;;198.38;51.00;;;;;;;3.35;100.00;102390.81;5016441;28;20089;-71
2022/01/16 01:23:07;;;;;;;190.80;51.88;;;;;;;3.38;100.00;102373.75;5025888;28;20029;-72
2022/01/16 01:25:32;;;;;;;192.52;49.55;;;;;;;3.41;100.00;102386.06;5019772;28;20111;-72
2022/01/16 01:27:57;;;;;;;189.93;50.90;;;;;;;3.44;100.00;102373.25;5023417;28;20025;-73
2022/01/16 01:30:24;;;;;;;179.80;49.92;;;;;;;3.44;100.00;102378.47;5025712;28;20460;-72
2022/01/16 01:32:51;;;;;;;176.50;49.17;;;;;;;3.46;100.00;102382.09;5020462;28;22033;-72
2022/01/16 01:35:18;;;;;;;169.40;46.67;;;;;;;3.47;100.00;102381.31;5019024;28;20018;-72
2022/01/16 01:37:44;;;;;;;173.48;47.92;;;;;;;3.48;100.00;102390.00;5025287;28;20034;-72
2022/01/16 01:40:14;;;;;;;163.30;46.15;;;;;;;3.47;100.00;102368.31;5027188;28;20056;-72
2022/01/16 01:42:47;;;;;;;167.23;47.13;;;;;;;3.44;100.00;102326.44;5039939;28;20501;-73
2022/01/16 01:51:18;;;;;;;156.35;46.25;;;;;;;3.43;100.00;102313.31;5026099;28;20116;-72
2022/01/16 01:53:44;;;;;;;155.07;46.83;;;;;;;3.41;100.00;102325.34;5020380;28;20474;-72
2022/01/16 01:56:13;;;;;;;163.57;47.50;;;;;;;3.44;100.00;102347.25;5025845;28;20444;-72
2022/01/16 01:58:38;;;;;;;166.43;48.45;;;;;;;3.41;100.00;102361.75;5032688;28;20030;-72
2022/01/16 02:01:04;;;;;;;151.52;49.08;;;;;;;3.42;100.00;102368.75;5028888;28;20048;-73
2022/01/16 02:03:42;;;;;;;166.07;49.75;;;;;;;3.43;100.00;102388.78;5031946;28;20026;-72
2022/01/16 02:06:28;;;;;;;163.68;47.72;;;;;;;3.44;100.00;102388.88;5030651;28;20037;-72
2022/01/16 02:08:57;;;;;;;165.65;48.80;;;;;;;3.43;100.00;102396.59;5019460;28;20029;-72
2022/01/16 02:11:27;;;;;;;168.52;49.45;;;;;;;3.46;100.00;102404.59;5025404;28;20041;-72
2022/01/16 02:35:50;;;;;;;141.82;48.15;;;;;;;3.33;100.00;102384.63;5028125;28;20382;-72
2022/01/16 02:38:16;;;;;;;129.02;46.33;;;;;;;3.31;100.00;102394.00;5022224;28;20478;-72
2022/01/16 02:40:48;;;;;;;129.73;47.25;;;;;;;3.34;100.00;102395.13;5024610;28;20104;-72
2022/01/16 02:43:16;;;;;;;130.18;47.60;;;;;;;3.27;100.00;102387.69;5023013;28;20032;-72
2022/01/16 02:45:46;;;;;;;129.10;44.03;;;;;;;3.28;100.00;102383.38;5021567;28;20022;-73
2022/01/16 02:48:11;;;;;;;123.38;46.42;;;;;;;3.30;100.00;102390.50;5030915;28;20025;-72
2022/01/16 02:50:38;;;;;;;119.95;47.90;;;;;;;3.30;100.00;102385.31;5023937;28;20059;-72
2022/01/16 02:53:08;;;;;;;110.32;44.13;;;;;;;3.26;100.00;102372.00;5025738;28;20041;-72
2022/01/16 02:55:34;;;;;;;118.35;46.53;;;;;;;3.25;100.00;102363.25;5022051;28;20511;-72
2022/01/16 02:58:00;;;;;;;110.60;43.22;;;;;;;3.21;100.00;102363.84;5028591;28;20112;-72
2022/01/16 03:00:25;;;;;;;122.60;45.50;;;;;;;3.17;100.00;102362.75;5020479;28;20496;-72
2022/01/16 03:02:51;;;;;;;118.80;46.15;;;;;;;3.14;100.00;102361.59;5029452;28;20072;-72
2022/01/16 03:05:17;;;;;;;108.18;45.40;;;;;;;3.14;100.00;102359.91;5027883;28;20034;-71
2022/01/16 03:07:44;;;;;;;110.63;45.90;;;;;;;3.13;100.00;102349.38;5022811;28;20363;-71
2022/01/16 03:10:34;;;;;;;104.78;42.70;;;;;;;3.11;100.00;102340.59;5015409;28;20057;-72
2022/01/16 03:12:59;;;;;;;112.35;46.97;;;;;;;3.08;100.00;102345.56;5023420;28;20036;-72
2022/01/16 03:15:25;;;;;;;109.22;46.10;;;;;;;3.08;100.00;102335.16;5025053;28;20026;-73
2022/01/16 03:23:21;;;;;;;;;;;;;;;3.08;100.00;102319.53;5022734;28;20040;-73
2022/01/16 03:25:49;;;;;;;102.85;43.75;;;;;;;3.07;100.00;102322.97;5029418;28;20281;-72
2022/01/16 03:28:15;;;;;;;106.18;44.78;;;;;;;3.04;100.00;102329.72;5023712;28;20032;-72
2022/01/16 03:30:41;;;;;;;103.10;44.13;;;;;;;3.07;100.00;102328.16;5027860;28;20025;-72
2022/01/16 03:33:06;;;;;;;105.85;43.70;;;;;;;3.07;100.00;102328.16;5025172;28;20487;-72
2022/01/16 03:35:31;;;;;;;107.80;46.35;;;;;;;3.09;100.00;102319.66;5020683;28;20492;-72
2022/01/16 03:37:57;;;;;;;99.60;44.25;;;;;;;3.10;100.00;102318.84;5030391;28;20458;-71
2022/01/16 03:40:22;;;;;;;105.22;44.22;;;;;;;3.09;100.00;102316.16;5023660;28;20042;-72
2022/01/16 03:42:49;;;;;;;92.03;41.80;;;;;;;3.11;100.00;102314.59;5022266;28;20453;-72
2022/01/16 03:45:15;;;;;;;96.25;41.97;;;;;;;3.13;100.00;102306.06;5028772;28;20033;-72
2022/01/16 03:47:41;;;;;;;95.45;42.42;;;;;;;3.14;100.00;102314.78;5026408;28;20365;-72
2022/01/16 03:50:07;;;;;;;94.90;42.83;;;;;;;3.15;100.00;102307.09;5023561;28;20032;-72
2022/01/16 03:52:33;;;;;;;91.05;43.03;;;;;;;3.15;100.00;102311.41;5022095;28;20040;-72
2022/01/16 03:54:58;;;;;;;94.32;43.10;;;;;;;3.13;100.00;102312.97;5021921;28;20033;-72
2022/01/16 03:57:24;;;;;;;92.05;41.35;;;;;;;3.16;100.00;102302.78;5025027;28;20389;-71
2022/01/16 03:59:49;;;;;;;93.50;42.47;;;;;;;3.16;100.00;102306.31;5022160;28;20032;-71
2022/01/16 04:02:15;;;;;;;89.82;40.75;;;;;;;3.18;100.00;102309.00;5020142;28;20152;-71
2022/01/16 04:04:40;;;;;;;89.68;42.45;;;;;;;3.16;100.00;102302.78;5022643;28;20022;-72
2022/01/16 04:07:08;;;;;;;93.50;42.30;;;;;;;3.17;100.00;102305.50;5015308;28;20041;-72
2022/01/16 04:09:33;;;;;;;90.70;40.35;;;;;;;3.18;100.00;102303.81;5024134;28;20516;-73
2022/01/16 04:12:00;;;;;;;86.13;41.25;;;;;;;3.13;100.00;102303.47;5026750;28;20146;-72
2022/01/16 04:15:31;;;;;;;92.88;40.25;;;;;;;3.11;100.00;102299.88;5024245;28;20030;-73
2022/01/16 04:17:17;;;;;;;90.22;41.53;;;;;;;3.15;100.00;102303.59;5018657;28;20036;-73
2022/01/16 04:19:43;;;;;;;96.35;39.65;;;;;;;3.18;100.00;102316.81;5014027;28;20065;-73
2022/01/16 04:22:08;;;;;;;88.95;40.95;;;;;;;3.17;100.00;102307.19;5017422;28;20127;-73
2022/01/16 04:24:35;;;;;;;88.25;41.15;;;;;;;3.20;100.00;102302.19;5020834;28;20021;-71
2022/01/16 04:27:01;;;;;;;91.15;41.65;;;;;;;3.21;100.00;102304.00;5019861;28;20184;-71
2022/01/16 04:29:26;;;;;;;86.07;39.92;;;;;;;3.22;100.00;102303.22;5013000;28;20025;-72
2022/01/16 04:31:52;;;;;;;81.72;38.75;;;;;;;3.26;100.00;102309.56;5021513;28;20021;-72
2022/01/16 04:34:17;;;;;;;84.68;38.17;;;;;;;3.29;100.00;102313.25;5024383;28;20025;-72
2022/01/16 04:36:43;;;;;;;79.90;39.08;;;;;;;3.29;100.00;102309.75;5020868;28;20036;-73
2022/01/16 04:39:13;;;;;;;80.18;37.88;;;;;;;3.31;100.00;102308.16;5020953;28;20080;-73
2022/01/16 04:44:23;;;;;;;77.70;36.72;;;;;;;3.36;100.00;102301.56;5021033;28;20032;-72
2022/01/16 04:46:48;;;;;;;79.72;36.13;;;;;;;3.36;100.00;102297.28;5025308;28;20034;-72
2022/01/16 04:49:14;;;;;;;83.95;37.42;;;;;;;3.38;100.00;102292.19;5014922;28;20394;-71
2022/01/16 04:51:39;;;;;;;83.97;37.38;;;;;;;3.40;100.00;102292.28;5030118;28;20132;-72
2022/01/16 04:54:05;;;;;;;71.43;35.35;;;;;;;3.42;100.00;102286.41;5023236;28;20030;-73
2022/01/16 04:56:30;;;;;;;74.53;34.70;;;;;;;3.43;100.00;102287.28;5020257;28;20080;-72
2022/01/16 04:58:55;;;;;;;75.50;35.55;;;;;;;3.44;100.00;102294.31;5028746;28;20036;-72
2022/01/16 05:01:22;;;;;;;73.68;34.15;;;;;;;3.46;100.00;102293.63;5026111;28;20107;-72
2022/01/16 05:03:47;;;;;;;68.13;32.38;;;;;;;3.48;100.00;102293.72;5020872;28;20025;-72
2022/01/16 05:06:12;;;;;;;73.18;33.75;;;;;;;3.51;100.00;102299.13;5024534;28;20029;-72
2022/01/16 05:08:38;;;;;;;68.13;32.80;;;;;;;3.53;100.00;102294.94;5028303;28;20088;-73
2022/01/16 05:11:05;;;;;;;77.15;33.75;;;;;;;3.54;100.00;102296.72;5027834;28;20508;-71
2022/01/16 05:18:43;;;;;;;;;;;;;;;3.60;100.00;102296.28;5029054;28;20055;-72
2022/01/16 05:21:09;;;;;;;59.28;28.50;;;;;;;3.62;100.00;102287.78;5023025;28;20424;-72
2022/01/16 05:23:35;;;;;;;58.40;28.60;;;;;;;3.65;100.00;102290.56;5019772;28;20030;-72
2022/01/16 05:26:01;;;;;;;54.50;27.10;;;;;;;3.67;100.00;102282.88;5022710;28;20040;-72
2022/01/16 05:28:28;;;;;;;52.33;26.48;;;;;;;3.70;100.00;102289.19;5022557;28;20046;-72
2022/01/16 05:30:53;;;;;;;50.88;24.92;;;;;;;3.75;100.00;102280.78;5028851;28;20493;-72
2022/01/16 05:33:20;;;;;;;44.85;22.15;;;;;;;3.81;100.00;102286.41;5023381;28;20060;-73
2022/01/16 05:35:45;;;;;;;36.78;17.20;;;;;;;3.97;100.00;102289.22;5023247;28;20033;-72
2022/01/16 05:38:11;;;;;;;29.60;11.18;;;;;;;4.25;100.00;102285.84;5022794;28;20036;-72
2022/01/16 05:40:37;;;;;;;15.32;8.63;;;;;;;4.52;100.00;102286.75;5024316;28;20036;-72
2022/01/16 05:43:02;;;;;;;13.95;5.22;;;;;;;4.93;100.00;102290.19;5028462;28;20449;-72
2022/01/16 05:45:28;;;;;;;11.20;5.35;;;;;;;5.25;100.00;102280.84;5023708;28;20108;-72
2022/01/16 05:47:54;;;;;;;9.77;4.30;;;;;;;5.44;100.00;102268.91;5026502;28;20544;-72
2022/01/16 05:50:20;;;;;;;14.77;4.25;;;;;;;5.61;100.00;102265.59;5026982;28;20112;-72
2022/01/16 05:52:46;;;;;;;10.82;3.60;;;;;;;5.85;99.80;102271.38;5025617;28;20061;-72
2022/01/16 05:55:12;;;;;;;10.23;4.45;;;;;;;5.95;97.90;102282.38;5027970;28;20023;-72
2022/01/16 05:57:37;;;;;;;8.18;3.35;;;;;;;6.04;95.68;102270.78;5024478;28;20536;-73
2022/01/16 06:00:08;;;;;;;5.10;2.63;;;;;;;6.13;91.85;102266.91;5020298;28;20033;-73
2022/01/16 06:02:33;;;;;;;6.13;2.80;;;;;;;6.20;89.46;102269.03;5021174;28;20069;-72
2022/01/16 06:04:59;;;;;;;7.40;2.63;;;;;;;6.31;87.06;102262.72;5015616;28;20517;-73
2022/01/16 06:07:24;;;;;;;6.60;3.05;;;;;;;6.31;86.11;102260.13;5024541;28;20032;-72
2022/01/16 06:09:52;;;;;;;7.68;2.78;;;;;;;6.31;85.16;102253.97;5020794;28;20030;-72
2022/01/16 06:12:18;;;;;;;7.00;3.10;;;;;;;6.28;84.95;102264.25;5029210;28;20551;-72
2022/01/16 06:14:43;;;;;;;7.43;3.15;;;;;;;6.27;85.96;102260.75;5023023;28;20127;-72
2022/01/16 06:17:08;;;;;;;4.53;3.10;;;;;;;6.28;85.47;102259.03;5025374;28;20151;-71
2022/01/16 06:19:34;;;;;;;4.22;3.28;;;;;;;6.23;86.63;102271.84;5028404;28;20088;-71
2022/01/16 06:21:59;;;;;;;6.65;3.50;;;;;;;6.22;86.61;102275.28;5022948;28;20827;-71
2022/01/16 06:24:24;;;;;;;4.32;3.25;;;;;;;6.21;87.00;102278.69;5022417;28;20537;-72
2022/01/16 06:26:50;;;;;;;6.07;3.47;;;;;;;6.22;86.77;102283.13;5028842;28;20028;-73
2022/01/16 06:29:17;;;;;;;4.57;3.47;;;;;;;6.20;86.51;102271.66;5025013;28;20083;-73
2022/01/16 06:31:42;;;;;;;12.13;5.57;;;;;;;6.21;86.31;102279.63;5021188;28;20112;-73
2022/01/16 06:34:08;;;;;;;6.97;3.35;;;;;;;6.19;86.99;102282.94;5023014;28;20108;-72
2022/01/16 06:36:35;;;;;;;5.63;4.18;;;;;;;6.18;85.16;102282.03;5024719;28;20034;-71
2022/01/16 06:39:02;;;;;;;6.53;4.05;;;;;;;6.16;84.75;102287.97;5011891;28;20112;-72
2022/01/16 06:41:27;;;;;;;6.82;3.97;;;;;;;6.18;86.63;102289.88;5041549;28;20470;-71
2022/01/16 06:43:53;;;;;;;8.57;4.10;;;;;;;6.18;85.84;102304.66;5021261;28;20111;-72
2022/01/16 06:46:18;;;;;;;5.53;4.53;;;;;;;6.19;87.72;102303.84;5018653;28;20061;-72
2022/01/16 06:48:44;;;;;;;11.43;4.65;;;;;;;6.18;87.98;102307.28;5025032;28;20501;-72
2022/01/16 06:51:09;;;;;;;7.72;3.72;;;;;;;6.24;87.26;102305.91;5025164;28;20044;-71
2022/01/16 06:53:35;;;;;;;6.90;4.70;;;;;;;6.30;86.62;102321.06;5025350;28;20439;-71
2022/01/16 06:56:01;;;;;;;8.07;4.07;;;;;;;6.32;87.05;102324.66;5018322;28;20112;-71
2022/01/16 06:58:26;;;;;;;11.27;4.07;;;;;;;6.36;87.22;102329.25;5025212;28;20163;-72
2022/01/16 07:00:52;;;;;;;5.90;3.50;;;;;;;6.41;86.39;102338.25;5025911;28;20060;-72
2022/01/16 07:03:18;;;;;;;9.48;3.90;;;;;;;6.41;86.76;102330.41;5021797;28;20091;-72
2022/01/16 07:05:44;;;;;;;8.45;3.47;;;;;;;6.45;86.38;102325.38;5025374;28;20056;-71
2022/01/16 07:08:10;;;;;;;7.57;3.75;;;;;;;6.44;86.73;102329.69;5020182;28;20485;-71
2022/01/16 07:10:35;;;;;;;4.65;3.67;;;;;;;6.49;86.15;102332.56;5013894;28;20018;-73
2022/01/16 07:13:01;;;;;;;10.73;3.75;;;;;;;6.50;86.30;102340.50;5017412;28;20033;-72
2022/01/16 07:15:27;;;;;;;9.82;5.10;;;;;;;6.55;86.63;102343.38;5017799;28;20030;-73
2022/01/16 07:17:52;;;;;;;9.55;4.57;;;;;;;6.53;86.78;102352.84;5018679;28;20047;-74
2022/01/16 07:20:17;;;;;;;10.52;4.43;;;;;;;6.53;86.88;102350.25;5022295;28;20025;-74
2022/01/16 07:22:44;;;;;;;9.18;4.20;;;;;;;6.54;87.10;102362.50;5019536;28;20038;-73
2022/01/16 07:25:10;;;;;;;8.10;4.20;;;;;;;6.53;87.34;102371.16;5025517;28;20159;-74
2022/01/16 07:27:36;;;;;;;9.20;3.70;;;;;;;6.61;87.30;102379.47;5020335;28;20056;-75
2022/01/16 07:30:01;;;;;;;7.57;3.58;;;;;;;6.65;87.90;102377.09;5039727;28;20060;-74
2022/01/16 07:32:27;;;;;;;10.02;4.57;;;;;;;6.66;88.23;102383.22;5021769;28;20544;-74
2022/01/16 07:34:52;;;;;;;9.07;4.50;;;;;;;6.68;89.78;102368.53;5018226;28;20435;-74
2022/01/16 07:37:17;;;;;;;10.10;4.65;;;;;;;6.71;90.62;102387.00;5024011;28;20026;-74
2022/01/16 07:39:43;;;;;;;8.73;4.25;;;;;;;6.73;91.74;102401.97;5018259;28;20076;-74
2022/01/16 07:42:08;;;;;;;11.02;4.30;;;;;;;6.71;92.68;102406.22;5020625;28;20455;-73
2022/01/16 07:44:34;;;;;;;11.27;4.88;;;;;;;6.71;94.26;102403.59;5023013;28;20068;-74
2022/01/16 07:46:59;;;;;;;12.30;5.32;;;;;;;6.69;94.87;102399.13;5018743;28;20041;-73
2022/01/16 07:49:24;;;;;;;13.07;5.50;;;;;;;6.62;96.70;102403.09;5021036;28;20025;-74
2022/01/16 07:51:50;;;;;;;12.02;4.88;;;;;;;6.61;97.91;102410.84;5020216;28;20049;-74
2022/01/16 07:54:15;;;;;;;11.95;5.18;;;;;;;6.61;98.45;102414.34;5018934;28;20095;-72
2022/01/16 07:56:42;;;;;;;16.25;5.75;;;;;;;6.62;99.32;102428.31;5020741;28;20021;-73
2022/01/16 07:59:07;;;;;;;11.90;6.50;;;;;;;6.62;100.00;102437.09;5022957;28;20057;-73
2022/01/16 08:01:32;;;;;;;14.63;6.22;;;;;;;6.65;100.00;102429.41;5022199;28;20097;-74
2022/01/16 08:03:58;;;;;;;12.77;6.05;;;;;;;6.62;100.00;102429.25;5026576;28;20040;-73
2022/01/16 08:06:25;;;;;;;18.10;6.43;;;;;;;6.62;100.00;102434.47;5022358;28;20022;-74
2022/01/16 08:08:51;;;;;;;13.90;6.60;;;;;;;6.61;100.00;102437.91;5024109;28;20132;-75
2022/01/16 08:11:16;;;;;;;16.65;6.88;;;;;;;6.60;100.00;102430.84;5021943;28;20498;-75
2022/01/16 08:13:41;;;;;;;22.60;7.28;;;;;;;6.62;100.00;102428.31;5027334;28;20025;-76
2022/01/16 08:16:07;;;;;;;18.77;6.90;;;;;;;6.63;100.00;102433.63;5020280;28;20030;-75
2022/01/16 08:18:33;;;;;;;15.95;5.85;;;;;;;6.64;100.00;102422.38;5022936;28;20053;-75
2022/01/16 08:20:59;;;;;;;15.10;6.45;;;;;;;6.62;100.00;102420.47;5021295;28;20083;-76
2022/01/16 08:23:28;;;;;;;13.55;6.78;;;;;;;6.62;100.00;102418.78;5021923;28;20029;-76
2022/01/16 08:25:54;;;;;;;15.95;6.63;;;;;;;6.63;100.00;102419.66;5017422;28;20497;-74
2022/01/16 08:28:20;;;;;;;21.67;7.50;;;;;;;6.67;100.00;102417.31;5026866;28;20041;-74
2022/01/16 08:30:45;;;;;;;17.13;7.57;;;;;;;6.64;100.00;102417.13;5011213;28;20029;-74
2022/01/16 08:33:11;;;;;;;19.63;7.00;;;;;;;6.67;100.00;102412.06;5022306;28;20033;-75
2022/01/16 08:35:36;;;;;;;12.07;6.22;;;;;;;6.68;100.00;102411.28;5025531;28;20018;-75
2022/01/16 08:38:02;;;;;;;18.90;7.22;;;;;;;6.71;100.00;102413.16;5026258;28;20064;-76
2022/01/16 08:40:28;;;;;;;18.05;6.57;;;;;;;6.70;100.00;102409.66;5027082;28;20071;-74
2022/01/16 08:42:53;;;;;;;17.08;7.30;;;;;;;6.70;100.00;102416.59;5030222;28;20252;-75
2022/01/16 08:45:19;;;;;;;15.23;6.40;;;;;;;6.68;100.00;102424.34;5032731;28;20421;-74
2022/01/16 08:47:45;;;;;;;15.15;6.82;;;;;;;6.69;100.00;102420.94;5020926;28;20052;-75
2022/01/16 08:50:12;;;;;;;14.55;6.55;;;;;;;6.69;100.00;102426.16;5024956;28;20457;-74
2022/01/16 08:52:38;;;;;;;14.82;6.95;;;;;;;6.67;100.00;102427.78;5021359;28;20431;-76
2022/01/16 08:55:05;;;;;;;22.17;10.32;;;;;;;6.64;100.00;102438.06;5028291;28;21612;-74
2022/01/16 08:57:30;;;;;;;32.97;16.13;;;;;;;6.46;100.00;102448.34;5032773;28;20405;-74
2022/01/16 08:59:56;;;;;;;33.40;17.48;;;;;;;6.39;100.00;102451.44;5036381;28;20124;-74
2022/01/16 09:02:21;;;;;;;42.63;19.42;;;;;;;6.22;100.00;102463.47;5027851;28;20022;-74
2022/01/16 09:04:47;;;;;;;42.38;20.02;;;;;;;6.11;100.00;102461.94;5033270;28;20033;-76
2022/01/16 09:07:13;;;;;;;42.33;19.70;;;;;;;6.08;100.00;102466.16;5032154;28;20129;-75
2022/01/16 09:09:38;;;;;;;48.40;21.83;;;;;;;6.01;100.00;102469.19;5023042;28;20025;-75
2022/01/16 09:12:04;;;;;;;46.80;21.90;;;;;;;5.98;100.00;102469.03;5019440;28;20109;-75
2022/01/16 09:14:30;;;;;;;53.15;22.30;;;;;;;5.99;100.00;102470.81;5027922;28;20083;-75
2022/01/16 09:16:55;;;;;;;54.53;23.45;;;;;;;5.89;100.00;102471.03;5024451;28;20040;-74
2022/01/16 09:19:20;;;;;;;56.10;24.45;;;;;;;5.86;100.00;102478.66;5024099;28;20025;-75
2022/01/16 09:21:46;;;;;;;57.85;25.35;;;;;;;5.80;100.00;102483.50;5023503;28;20159;-73
2022/01/16 09:24:11;;;;;;;60.03;25.10;;;;;;;5.77;100.00;102488.56;5026872;28;20044;-74
2022/01/16 09:26:36;;;;;;;61.42;26.52;;;;;;;5.66;100.00;102488.78;5032146;28;20035;-75
2022/01/16 09:29:03;;;;;;;64.90;26.83;;;;;;;5.57;100.00;102490.78;5026057;28;20057;-76
2022/01/16 09:31:29;;;;;;;57.28;25.40;;;;;;;5.61;100.00;102497.13;5034807;28;20386;-74
2022/01/16 09:33:56;;;;;;;70.40;27.35;;;;;;;5.57;100.00;102501.25;5026789;28;20033;-73
2022/01/16 09:36:21;;;;;;;63.13;26.98;;;;;;;5.55;100.00;102498.53;5033225;28;20021;-70
2022/01/16 09:38:47;;;;;;;70.50;27.75;;;;;;;5.55;100.00;102503.75;5033662;28;20065;-71
2022/01/16 09:41:14;;;;;;;67.97;27.92;;;;;;;5.57;100.00;102507.38;5027844;28;20036;-72
2022/01/16 09:43:41;;;;;;;66.07;28.20;;;;;;;5.54;100.00;102506.28;5023881;28;20033;-72
2022/01/16 09:46:06;;;;;;;71.40;29.60;;;;;;;5.51;100.00;102508.69;5019544;28;20030;-71
2022/01/16 09:48:32;;;;;;;64.57;27.73;;;;;;;5.55;100.00;102508.97;5032853;28;20028;-71
2022/01/16 09:50:58;;;;;;;67.93;28.02;;;;;;;5.51;100.00;102504.38;5034101;28;20025;-71
2022/01/16 09:53:24;;;;;;;70.00;28.42;;;;;;;5.50;100.00;102504.28;5031467;28;20058;-71
2022/01/16 09:55:50;;;;;;;73.20;29.65;;;;;;;5.55;100.00;102513.31;5026264;28;20025;-71
2022/01/16 09:58:16;;;;;;;74.90;29.38;;;;;;;5.51;100.00;102516.53;5029766;28;20044;-71
2022/01/16 10:00:41;;;;;;;68.45;29.42;;;;;;;5.50;100.00;102519.94;5030167;28;20031;-71
2022/01/16 10:03:06;;;;;;;69.90;29.65;;;;;;;5.49;100.00;102519.00;5030878;28;20048;-71
2022/01/16 10:05:35;;;;;;;75.35;30.00;;;;;;;5.48;100.00;102534.59;5031398;28;20029;-71
2022/01/16 10:08:08;;;;;;;72.32;29.30;;;;;;;5.40;100.00;102537.63;5029819;28;20109;-72
2022/01/16 10:10:44;;;;;;;86.93;31.65;;;;;;;5.50;100.00;102540.81;5028862;28;20017;-72
2022/01/16 10:13:22;;;;;;;77.07;32.22;;;;;;;5.45;100.00;102537.91;5029472;28;20453;-72
2022/01/16 10:16:05;;;;;;;77.32;29.98;;;;;;;5.46;100.00;102536.22;5029005;28;20057;-71
2022/01/16 10:18:39;;;;;;;84.10;30.48;;;;;;;5.38;100.00;102546.16;5031893;28;20071;-70
2022/01/16 10:21:09;;;;;;;84.15;32.38;;;;;;;5.40;100.00;102550.66;5030455;28;20037;-72
2022/01/16 10:23:43;;;;;;;77.50;31.02;;;;;;;5.39;100.00;102553.19;5031812;28;20888;-72
2022/01/16 10:26:19;;;;;;;81.03;32.55;;;;;;;5.37;100.00;102545.25;5029927;28;20029;-71
2022/01/16 10:28:45;;;;;;;91.68;33.03;;;;;;;5.39;100.00;102550.56;5026974;28;20026;-71
2022/01/16 10:31:18;;;;;;;86.32;32.88;;;;;;;5.37;100.00;102546.94;5025693;28;20374;-71
2022/01/16 10:33:43;;;;;;;87.88;32.30;;;;;;;5.42;100.00;102547.25;5020229;28;20045;-71
2022/01/16 10:36:08;;;;;;;78.70;33.83;;;;;;;5.45;100.00;102542.22;5027894;28;20032;-73
2022/01/16 10:38:34;;;;;;;85.55;32.17;;;;;;;5.46;100.00;102547.53;5027725;28;20079;-74
2022/01/16 10:41:02;;;;;;;90.10;32.88;;;;;;;5.49;100.00;102546.84;5028707;28;20045;-75
2022/01/16 10:43:43;;;;;;;88.40;31.10;;;;;;;5.48;100.00;102545.94;5020636;28;20092;-71
2022/01/16 10:46:10;;;;;;;88.78;33.70;;;;;;;5.50;100.00;102548.66;5031049;28;20029;-72
2022/01/16 10:48:36;;;;;;;86.07;32.80;;;;;;;5.50;100.00;102552.16;5021764;28;20038;-72
2022/01/16 10:51:03;;;;;;;91.35;32.15;;;;;;;5.59;100.00;102530.97;5029523;28;20044;-73
2022/01/16 10:53:32;;;;;;;82.45;34.85;;;;;;;5.56;100.00;102541.19;5027851;28;20036;-72
2022/01/16 10:56:02;;;;;;;95.43;32.80;;;;;;;5.67;100.00;102537.59;5026473;28;20025;-70
2022/01/16 10:58:28;;;;;;;93.90;31.58;;;;;;;5.74;100.00;102537.16;5025465;28;20151;-71
2022/01/16 11:01:05;;;;;;;79.72;32.63;;;;;;;5.82;100.00;102545.50;5028802;28;20037;-72
2022/01/16 11:03:46;;;;;;;91.43;34.17;;;;;;;5.79;100.00;102540.06;5029241;28;20025;-71
2022/01/16 11:06:12;;;;;;;89.15;32.78;;;;;;;5.87;100.00;102535.31;5023303;28;20059;-71
2022/01/16 11:09:04;;;;;;;101.40;35.92;;;;;;;5.83;100.00;102528.09;5019395;28;20093;-72
2022/01/16 11:11:29;;;;;;;87.10;33.42;;;;;;;5.90;100.00;102532.91;5015514;28;20037;-72
2022/01/16 11:13:56;;;;;;;86.75;34.17;;;;;;;5.99;100.00;102546.59;5030002;28;20025;-72
2022/01/16 11:16:23;;;;;;;90.53;32.95;;;;;;;6.14;100.00;102553.59;5025216;28;20108;-72
2022/01/16 11:18:50;;;;;;;86.57;33.35;;;;;;;6.31;100.00;102542.47;5029221;28;20389;-71
2022/01/16 11:21:31;;;;;;;77.50;31.67;;;;;;;6.36;100.00;102545.34;5024990;28;20030;-71
2022/01/16 11:24:12;;;;;;;93.43;33.28;;;;;;;6.44;100.00;102533.63;5027932;28;20021;-72
2022/01/16 11:26:38;;;;;;;75.75;29.88;;;;;;;6.61;100.00;102552.97;5029668;28;20363;-72
2022/01/16 11:29:04;;;;;;;83.80;30.73;;;;;;;6.80;100.00;102554.09;5023874;28;20108;-71
2022/01/16 11:31:29;;;;;;;72.35;28.58;;;;;;;7.04;100.00;102549.38;5029032;28;20029;-70
2022/01/16 11:33:54;;;;;;;71.75;28.50;;;;;;;7.24;100.00;102547.94;5028367;28;20124;-72
2022/01/16 11:36:23;;;;;;;67.55;28.35;;;;;;;7.38;100.00;102539.16;5028517;28;20075;-72
2022/01/16 11:38:53;;;;;;;69.25;28.58;;;;;;;7.44;100.00;102530.75;5027670;28;20029;-72
2022/01/16 11:41:30;;;;;;;61.45;26.27;;;;;;;7.20;100.00;102525.00;5023761;28;20385;-72
2022/01/16 11:43:55;;;;;;;57.88;24.90;;;;;;;7.25;100.00;102526.19;5023122;28;20440;-73
2022/01/16 11:46:22;;;;;;;60.72;25.55;;;;;;;7.11;100.00;102532.31;5030333;28;20032;-72
2022/01/16 11:48:53;;;;;;;62.70;25.17;;;;;;;7.15;100.00;102524.75;5021941;28;20532;-72
2022/01/16 11:51:39;;;;;;;54.60;22.10;;;;;;;7.07;100.00;102523.41;5022442;28;20021;-71
2022/01/16 11:54:24;;;;;;;54.55;22.08;;;;;;;7.06;100.00;102517.25;5020766;28;20373;-73
2022/01/16 11:56:54;;;;;;;;;;;;;;;7.07;100.00;102526.91;5025322;28;20082;-72